Time;durP1;ratioP1;P1;durP2;ratioP2;P2;SDS_P1;SDS_P2;PMS_P1;PMS_P2;Temp;Humidity;BMP_temperature;BMP_pressure;BME280_temperature;BME280_humidity;BME280_pressure;Samples;Min_cycle;Max_cycle;Signal;HPM_P1;HPM_P2
2023/05/08 00:01:55;;;;;;;16.58;14.85;;;;;;;13.72;100.00;101960.88;6079656;23;20069;-80
2023/05/08 00:04:20;;;;;;;15.80;14.30;;;;;;;13.69;100.00;101953.88;6128163;23;20013;-79
2023/05/08 00:06:48;;;;;;;16.30;14.40;;;;;;;13.69;100.00;101961.75;6078510;23;20083;-79
2023/05/08 00:09:14;;;;;;;18.02;16.13;;;;;;;13.68;100.00;101960.91;6127884;23;20009;-80
2023/05/08 00:11:39;;;;;;;17.27;15.45;;;;;;;13.63;100.00;101959.19;6079766;23;20140;-79
2023/05/08 00:14:05;;;;;;;18.17;16.38;;;;;;;13.59;100.00;101965.34;6079522;23;20436;-80
2023/05/08 00:16:30;;;;;;;20.20;18.08;;;;;;;13.58;100.00;101961.84;6103504;23;20009;-80
2023/05/08 00:18:59;;;;;;;19.60;17.70;;;;;;;13.56;100.00;101957.47;6079622;23;20013;-79
2023/05/08 00:21:24;;;;;;;21.38;19.30;;;;;;;13.54;100.00;101956.63;6127827;23;20013;-79
2023/05/08 00:23:50;;;;;;;21.15;18.90;;;;;;;13.55;100.00;101953.97;6078942;23;20020;-80
2023/05/08 00:26:15;;;;;;;22.35;19.98;;;;;;;13.57;100.00;101957.47;6102460;23;20510;-80
2023/05/08 00:28:41;;;;;;;21.77;19.60;;;;;;;13.58;100.00;101959.22;6103802;23;20010;-80
2023/05/08 00:31:06;;;;;;;21.90;19.80;;;;;;;13.59;100.00;101965.34;6078569;23;20017;-79
2023/05/08 00:33:31;;;;;;;20.95;18.83;;;;;;;13.59;100.00;101958.34;6079175;23;20016;-80
2023/05/08 00:36:04;;;;;;;21.50;19.40;;;;;;;13.57;100.00;101959.22;6102998;23;20014;-79
2023/05/08 00:38:33;;;;;;;19.77;17.75;;;;;;;13.52;100.00;101962.75;6127651;23;20009;-79
2023/05/08 00:41:00;;;;;;;21.20;19.10;;;;;;;13.51;100.00;101958.38;6102889;23;20502;-79
2023/05/08 00:43:27;;;;;;;20.17;18.13;;;;;;;13.49;100.00;101954.88;6079401;23;20399;-79
2023/05/08 00:45:54;;;;;;;20.30;18.35;;;;;;;13.49;100.00;101965.41;6114940;23;20133;-79
2023/05/08 00:48:22;;;;;;;20.13;18.10;;;;;;;13.47;100.00;101954.00;6156710;23;20110;-79
2023/05/08 00:50:49;;;;;;;21.45;19.30;;;;;;;13.46;100.00;101949.66;6132579;23;20016;-79
2023/05/08 00:53:16;;;;;;;22.58;20.27;;;;;;;13.44;100.00;101947.91;6132637;23;20043;-79
2023/05/08 00:55:42;;;;;;;20.65;18.58;;;;;;;13.43;100.00;101951.41;6107910;23;20358;-79
2023/05/08 00:58:08;;;;;;;21.83;19.13;;;;;;;13.43;100.00;101948.78;6133148;23;20009;-79
2023/05/08 01:00:33;;;;;;;21.63;19.02;;;;;;;13.44;100.00;101961.94;6156161;23;20104;-79
2023/05/08 01:03:00;;;;;;;19.88;17.88;;;;;;;13.42;100.00;101953.19;6108486;23;20009;-79
2023/05/08 01:05:29;;;;;;;20.58;18.40;;;;;;;13.40;100.00;101949.66;6132991;23;20474;-79
2023/05/08 01:07:55;;;;;;;20.05;18.05;;;;;;;13.37;100.00;101949.69;6157421;23;20442;-79
2023/05/08 01:10:20;;;;;;;17.50;15.70;;;;;;;13.40;100.00;101947.03;6133356;23;20013;-79
2023/05/08 01:13:05;;;;;;;20.88;14.20;;;;;;;13.45;100.00;101955.78;6108929;23;20017;-79
2023/05/08 01:15:40;;;;;;;21.10;18.90;;;;;;;13.43;100.00;101951.41;6157778;23;20419;-79
2023/05/08 01:18:18;;;;;;;22.90;20.60;;;;;;;13.44;100.00;101950.53;6157386;23;20130;-79
2023/05/08 01:20:48;;;;;;;20.27;18.20;;;;;;;13.43;100.00;101943.50;6157397;23;20009;-79
2023/05/08 01:23:28;;;;;;;20.53;18.43;;;;;;;13.43;100.00;101943.50;6157404;23;20015;-79
2023/05/08 01:26:27;;;;;;;18.73;16.83;;;;;;;13.46;100.00;101943.47;6157939;23;20044;-79
2023/05/08 01:29:08;;;;;;;18.27;16.52;;;;;;;13.44;100.00;101946.13;6158046;23;20009;-79
2023/05/08 01:31:39;;;;;;;;;;;;;;;13.54;100.00;101944.31;6157715;23;20012;-79
2023/05/08 01:34:18;;;;;;;19.05;16.90;;;;;;;13.42;100.00;101947.91;6156838;23;20318;-79
2023/05/08 01:36:49;;;;;;;20.27;17.88;;;;;;;13.42;100.00;101953.19;6155842;23;20431;-80
2023/05/08 01:39:25;;;;;;;20.48;18.48;;;;;;;13.38;100.00;101951.44;6157277;23;20016;-79
2023/05/08 01:42:29;;;;;;;19.30;17.30;;;;;;;13.43;100.00;101949.66;6156568;23;20554;-79
2023/05/08 01:45:03;;;;;;;18.45;16.50;;;;;;;13.33;100.00;101947.91;6157131;23;20009;-79
2023/05/08 01:47:32;;;;;;;18.58;16.80;;;;;;;13.28;100.00;101945.31;6157127;23;20037;-79
2023/05/08 01:50:03;;;;;;;18.98;17.13;;;;;;;13.28;100.00;101941.81;6132420;23;20005;-79
2023/05/08 01:52:44;;;;;;;20.38;18.35;;;;;;;13.29;100.00;101939.16;6156560;23;20012;-79
2023/05/08 01:55:16;;;;;;;19.38;17.27;;;;;;;13.23;100.00;101941.84;6157506;23;20312;-79
2023/05/08 01:57:47;;;;;;;20.25;18.25;;;;;;;13.27;100.00;101953.22;6157334;23;20028;-79
2023/05/08 02:00:14;;;;;;;;;;;;;;;13.39;100.00;101953.19;6157765;23;20096;-79
2023/05/08 02:02:41;;;;;;;24.92;20.20;;;;;;;13.28;100.00;101955.84;6155903;23;20095;-79
2023/05/08 02:05:08;;;;;;;24.17;21.23;;;;;;;13.28;100.00;101960.25;6131630;23;20024;-79
2023/05/08 02:07:36;;;;;;;24.30;21.88;;;;;;;13.25;100.00;101960.25;6131842;23;20021;-79
2023/05/08 02:10:03;;;;;;;22.73;20.35;;;;;;;13.26;100.00;101956.72;6133636;23;20009;-80
2023/05/08 02:12:31;;;;;;;22.27;20.00;;;;;;;13.25;100.00;101961.13;6157623;23;20012;-79
2023/05/08 02:14:59;;;;;;;23.70;21.00;;;;;;;13.26;100.00;101964.63;6133887;23;20009;-79
2023/05/08 02:17:26;;;;;;;23.92;21.63;;;;;;;13.26;100.00;101965.50;6159407;23;20005;-79
2023/05/08 02:19:55;;;;;;;23.40;20.80;;;;;;;13.23;100.00;101977.81;6158823;23;20079;-79
2023/05/08 02:22:22;;;;;;;25.00;21.02;;;;;;;13.17;100.00;101974.34;6158352;23;20428;-79
2023/05/08 02:24:52;;;;;;;25.75;23.05;;;;;;;13.15;100.00;101969.94;6159392;23;20048;-79
2023/05/08 02:27:20;;;;;;;25.42;22.83;;;;;;;13.15;100.00;101975.22;6135242;23;20013;-79
2023/05/08 02:29:46;;;;;;;43.58;20.98;;;;;;;13.11;100.00;101974.34;6159337;23;20064;-79
2023/05/08 02:32:14;;;;;;;24.35;21.75;;;;;;;13.12;100.00;101970.84;6134856;23;20140;-80
2023/05/08 02:34:40;;;;;;;29.30;26.15;;;;;;;13.11;100.00;101968.22;6110352;23;20029;-80
2023/05/08 02:37:06;;;;;;;25.48;22.40;;;;;;;13.07;100.00;101966.47;6133668;23;20431;-80
2023/05/08 02:39:34;;;;;;;24.23;21.83;;;;;;;13.09;100.00;101964.72;6134590;23;20151;-80
2023/05/08 02:41:59;;;;;;;23.05;20.60;;;;;;;13.04;100.00;101963.84;6133982;23;20005;-79
2023/05/08 02:44:25;;;;;;;23.33;20.92;;;;;;;13.05;100.00;101970.88;6109998;23;20032;-79
2023/05/08 02:47:09;;;;;;;26.08;23.38;;;;;;;13.10;100.00;101969.09;6158873;23;20111;-79
2023/05/08 02:49:53;;;;;;;28.05;25.02;;;;;;;13.08;100.00;101966.47;6158938;23;20055;-79
2023/05/08 02:52:44;;;;;;;27.70;24.83;;;;;;;13.11;100.00;101965.56;6158245;23;20434;-79
2023/05/08 02:55:38;;;;;;;26.88;24.10;;;;;;;13.10;100.00;101962.09;6159139;23;20435;-79
2023/05/08 02:58:04;;;;;;;28.17;24.90;;;;;;;13.08;100.00;101961.19;6159296;23;20446;-79
2023/05/08 03:00:56;;;;;;;26.67;23.65;;;;;;;13.10;100.00;101962.09;6158750;23;20004;-79
2023/05/08 03:03:28;;;;;;;24.33;21.80;;;;;;;13.07;100.00;101964.69;6155587;23;20415;-79
2023/05/08 03:05:56;;;;;;;24.80;21.02;;;;;;;13.07;100.00;101959.44;6158046;23;20004;-79
2023/05/08 03:08:29;;;;;;;23.05;20.58;;;;;;;13.04;100.00;101959.47;6132512;23;20071;-79
2023/05/08 03:11:00;;;;;;;24.95;22.20;;;;;;;13.00;100.00;101968.25;6158066;23;20039;-78
2023/05/08 03:13:30;;;;;;;23.75;21.25;;;;;;;13.00;100.00;101968.25;6157067;23;20442;-79
2023/05/08 03:15:59;;;;;;;23.97;21.57;;;;;;;12.98;100.00;101965.63;6157777;23;20017;-79
2023/05/08 03:18:32;;;;;;;22.15;19.83;;;;;;;12.99;100.00;101964.75;6157274;23;20016;-79
2023/05/08 03:20:59;;;;;;;22.60;20.15;;;;;;;13.00;100.00;101961.25;6157645;23;20040;-79
2023/05/08 03:23:28;;;;;;;22.05;19.75;;;;;;;12.98;100.00;101960.34;6157700;23;20100;-79
2023/05/08 03:25:56;;;;;;;21.02;18.60;;;;;;;12.95;100.00;101959.50;6157721;23;20023;-79
2023/05/08 03:28:23;;;;;;;20.08;18.13;;;;;;;12.90;100.00;101958.63;6158091;23;20378;-79
2023/05/08 03:30:50;;;;;;;20.67;18.67;;;;;;;12.91;100.00;101958.63;6108747;23;20017;-79
2023/05/08 03:33:16;;;;;;;21.42;19.23;;;;;;;12.92;100.00;101957.75;6183978;23;20051;-79
2023/05/08 03:35:43;;;;;;;23.00;20.70;;;;;;;12.90;100.00;101956.91;6132632;23;20012;-79
2023/05/08 03:38:09;;;;;;;24.40;21.70;;;;;;;12.94;100.00;101955.13;6156843;23;20031;-79
2023/05/08 03:40:38;;;;;;;24.10;21.60;;;;;;;12.93;100.00;101956.00;6133418;23;20091;-79
2023/05/08 03:43:06;;;;;;;22.70;20.42;;;;;;;12.92;100.00;101951.63;6134271;23;20013;-79
2023/05/08 03:45:35;;;;;;;24.10;21.73;;;;;;;12.91;100.00;101948.09;6157926;23;20012;-79
2023/05/08 03:48:03;;;;;;;26.40;21.63;;;;;;;12.90;100.00;101948.13;6157643;23;20091;-79
2023/05/08 03:50:30;;;;;;;23.38;20.98;;;;;;;12.91;100.00;101944.59;6129955;23;20009;-80
2023/05/08 03:52:57;;;;;;;24.45;21.58;;;;;;;12.93;100.00;101945.47;6132670;23;20012;-79
2023/05/08 03:55:23;;;;;;;24.67;22.00;;;;;;;12.95;100.00;101949.84;6156639;23;20005;-79
2023/05/08 03:58:23;;;;;;;23.40;21.10;;;;;;;12.96;100.00;101943.72;6108576;23;20013;-79
2023/05/08 04:00:58;;;;;;;24.60;22.17;;;;;;;12.97;100.00;101948.09;6028777;23;20506;-79
2023/05/08 04:03:33;;;;;;;23.38;21.15;;;;;;;12.97;100.00;101952.47;6157395;23;20368;-79
2023/05/08 04:06:06;;;;;;;72.05;21.67;;;;;;;12.95;100.00;101960.38;6156980;23;20012;-80
2023/05/08 04:08:42;;;;;;;21.25;18.90;;;;;;;12.95;100.00;101952.47;6157206;23;20453;-79
2023/05/08 04:11:29;;;;;;;22.42;20.23;;;;;;;12.98;100.00;101957.72;6157346;23;20008;-79
2023/05/08 04:14:04;;;;;;;43.67;20.80;;;;;;;12.95;100.00;101956.88;6157038;23;20428;-79
2023/05/08 04:16:34;;;;;;;17.77;15.88;;;;;;;12.89;100.00;101956.91;6156795;23;20025;-79
2023/05/08 04:19:09;;;;;;;17.30;15.50;;;;;;;12.93;100.00;101948.09;6157317;23;20516;-79
2023/05/08 04:21:38;;;;;;;18.75;16.90;;;;;;;12.91;100.00;101963.03;6156787;23;20015;-79
2023/05/08 04:24:06;;;;;;;55.83;20.80;;;;;;;12.94;100.00;101955.13;6156833;23;20085;-80
2023/05/08 04:26:32;;;;;;;37.80;18.83;;;;;;;12.96;100.00;101956.00;6156440;23;20043;-80
2023/05/08 04:28:58;;;;;;;133.13;19.27;;;;;;;12.96;100.00;101958.63;6108690;23;20005;-79
2023/05/08 04:31:25;;;;;;;18.67;14.52;;;;;;;12.95;100.00;101963.00;6108856;23;20091;-80
2023/05/08 04:33:51;;;;;;;30.15;19.52;;;;;;;12.93;100.00;101956.00;6133153;23;20016;-79
2023/05/08 04:36:16;;;;;;;25.05;22.45;;;;;;;12.97;100.00;101970.88;6132528;23;20008;-79
2023/05/08 04:38:42;;;;;;;25.15;22.55;;;;;;;12.98;100.00;101968.25;6157687;23;20009;-79
2023/05/08 04:41:08;;;;;;;22.45;20.05;;;;;;;12.96;100.00;101970.03;6158023;23;20408;-79
2023/05/08 04:43:34;;;;;;;19.90;17.92;;;;;;;12.96;100.00;101964.75;6158065;23;20001;-79
2023/05/08 04:46:00;;;;;;;21.23;17.83;;;;;;;12.93;100.00;101975.31;6131483;23;20024;-79
2023/05/08 04:48:25;;;;;;;20.00;17.98;;;;;;;12.94;100.00;101978.78;6103571;23;20020;-80
2023/05/08 04:50:51;;;;;;;24.65;22.15;;;;;;;12.98;100.00;101970.88;6078724;23;20017;-80
2023/05/08 04:53:16;;;;;;;23.63;21.23;;;;;;;13.05;100.00;101981.41;6079287;23;20056;-79
2023/05/08 04:55:42;;;;;;;25.55;22.85;;;;;;;13.08;100.00;101981.38;6104353;23;20455;-79
2023/05/08 04:58:09;;;;;;;26.98;24.15;;;;;;;13.11;100.00;101991.91;6079324;23;20455;-79
2023/05/08 05:00:35;;;;;;;25.05;22.38;;;;;;;13.14;100.00;101992.75;6128320;23;20009;-80
2023/05/08 05:03:00;;;;;;;24.00;21.58;;;;;;;13.12;100.00;101985.75;6103706;23;20140;-79
2023/05/08 05:05:26;;;;;;;26.70;23.98;;;;;;;13.13;100.00;101988.38;6079700;23;20037;-79
2023/05/08 05:07:51;;;;;;;25.42;22.73;;;;;;;13.15;100.00;101988.38;6127564;23;20110;-80
2023/05/08 05:10:17;;;;;;;25.77;23.10;;;;;;;13.20;100.00;101994.47;6079528;23;20014;-80
2023/05/08 05:12:42;;;;;;;31.48;28.17;;;;;;;13.24;100.00;101984.81;6128485;23;20368;-79
2023/05/08 05:15:09;;;;;;;34.10;30.50;;;;;;;13.25;100.00;101994.47;6079059;23;20017;-80
2023/05/08 05:17:34;;;;;;;37.50;29.63;;;;;;;13.31;100.00;101999.72;6080059;23;20020;-79
2023/05/08 05:19:59;;;;;;;35.33;31.55;;;;;;;13.33;100.00;101997.94;6078933;23;20037;-79
2023/05/08 05:22:26;;;;;;;36.42;32.50;;;;;;;13.38;100.00;102004.09;6079494;23;20041;-79
2023/05/08 05:24:52;;;;;;;39.38;35.13;;;;;;;13.43;100.00;101997.06;6080045;23;20013;-79
2023/05/08 05:27:17;;;;;;;43.75;38.65;;;;;;;13.47;100.00;102004.03;6079346;23;20010;-79
2023/05/08 05:29:42;;;;;;;41.13;34.80;;;;;;;13.50;100.00;102009.31;6128417;23;20313;-80
2023/05/08 05:32:10;;;;;;;40.08;35.42;;;;;;;13.56;100.00;102004.88;6101905;23;20006;-80
2023/05/08 05:34:35;;;;;;;46.58;40.60;;;;;;;13.58;100.00;102008.41;6079071;23;20020;-80
2023/05/08 05:37:01;;;;;;;44.65;37.92;;;;;;;13.65;100.00;102018.00;6126822;23;20084;-80
2023/05/08 05:39:26;;;;;;;44.58;39.78;;;;;;;13.73;100.00;102016.19;6079469;23;20487;-79
2023/05/08 05:41:52;;;;;;;48.97;40.08;;;;;;;13.80;100.00;102017.88;6102787;23;20013;-79
2023/05/08 05:44:17;;;;;;;47.88;41.90;;;;;;;13.86;100.00;102020.50;6128221;23;20088;-79
2023/05/08 05:46:43;;;;;;;52.35;46.58;;;;;;;13.86;100.00;102025.78;6115325;23;20017;-79
2023/05/08 05:49:08;;;;;;;53.70;46.22;;;;;;;13.86;100.00;102023.16;6134422;23;20009;-79
2023/05/08 05:51:33;;;;;;;54.40;46.08;;;;;;;13.94;100.00;102027.50;6109840;23;20396;-79
2023/05/08 05:53:59;;;;;;;53.13;45.72;;;;;;;14.01;100.00;102031.81;6110595;23;20005;-79
2023/05/08 05:56:24;;;;;;;46.90;41.92;;;;;;;14.07;100.00;102033.56;6110833;23;20120;-79
2023/05/08 05:58:50;;;;;;;50.97;42.17;;;;;;;14.13;100.00;102039.63;6134868;23;20013;-79
2023/05/08 06:01:16;;;;;;;49.45;43.22;;;;;;;14.12;100.00;102040.53;6110900;23;20009;-79
2023/05/08 06:03:42;;;;;;;48.08;42.13;;;;;;;14.14;100.00;102043.16;6134416;23;20013;-79
2023/05/08 06:06:07;;;;;;;47.35;41.95;;;;;;;14.19;100.00;102043.97;6134495;23;20017;-79
2023/05/08 06:08:32;;;;;;;47.03;42.05;;;;;;;14.21;100.00;102043.09;6158969;23;20769;-79
2023/05/08 06:10:58;;;;;;;47.72;41.60;;;;;;;14.26;100.00;102035.13;6134485;23;20423;-79
2023/05/08 06:13:23;;;;;;;46.83;41.78;;;;;;;14.32;100.00;102042.13;6134115;23;20016;-79
2023/05/08 06:15:49;;;;;;;50.63;44.13;;;;;;;14.32;100.00;102044.75;6110439;23;20036;-79
2023/05/08 06:18:15;;;;;;;49.22;43.50;;;;;;;14.34;100.00;102040.38;6110485;23;20017;-79
2023/05/08 06:20:41;;;;;;;56.65;45.60;;;;;;;14.32;100.00;102043.03;6133854;23;20005;-79
2023/05/08 06:23:07;;;;;;;49.17;43.40;;;;;;;14.33;100.00;102046.53;6133850;23;20023;-79
2023/05/08 06:25:32;;;;;;;51.25;44.50;;;;;;;14.39;100.00;102038.56;6134598;23;20013;-79
2023/05/08 06:27:58;;;;;;;50.53;43.40;;;;;;;14.43;100.00;102035.00;6110390;23;20005;-79
2023/05/08 06:30:24;;;;;;;53.60;46.40;;;;;;;14.42;100.00;102038.53;6159086;23;20009;-79
2023/05/08 06:32:49;;;;;;;53.42;46.03;;;;;;;14.43;100.00;102034.13;6132936;23;20009;-79
2023/05/08 06:35:17;;;;;;;51.60;46.00;;;;;;;14.46;100.00;102039.38;6107606;23;20397;-79
2023/05/08 06:37:43;;;;;;;51.63;44.53;;;;;;;14.52;100.00;102040.22;6133502;23;20019;-80
2023/05/08 06:40:10;;;;;;;52.45;45.63;;;;;;;14.59;100.00;102035.72;6134199;23;20013;-79
2023/05/08 06:42:35;;;;;;;56.33;47.65;;;;;;;14.62;100.00;102035.72;6108754;23;20020;-79
2023/05/08 06:45:01;;;;;;;54.72;44.75;;;;;;;14.54;100.00;102048.97;6158787;23;20008;-79
2023/05/08 06:47:27;;;;;;;53.42;46.42;;;;;;;14.55;100.00;102040.19;6133956;23;20049;-79
2023/05/08 06:49:52;;;;;;;56.67;47.90;;;;;;;14.55;100.00;102044.56;6109435;23;20092;-80
2023/05/08 06:52:19;;;;;;;56.80;48.00;;;;;;;14.65;100.00;102050.66;6133368;23;20009;-80
2023/05/08 06:54:45;;;;;;;58.30;48.53;;;;;;;14.77;100.00;102047.91;6134468;23;20096;-80
2023/05/08 06:57:12;;;;;;;55.72;48.75;;;;;;;14.87;100.00;102052.22;6109416;23;20401;-80
2023/05/08 06:59:37;;;;;;;54.00;46.78;;;;;;;14.98;100.00;102053.84;6133928;23;20009;-80
2023/05/08 07:02:03;;;;;;;56.28;50.13;;;;;;;15.03;100.00;102055.56;6109378;23;20009;-79
2023/05/08 07:04:28;;;;;;;59.30;49.78;;;;;;;15.11;100.00;102060.72;6158440;23;20027;-79
2023/05/08 07:06:54;;;;;;;62.58;53.20;;;;;;;15.08;100.00;102055.50;6157507;23;20031;-80
2023/05/08 07:09:19;;;;;;;63.45;53.50;;;;;;;15.15;100.00;102051.91;6184374;23;20009;-80
2023/05/08 07:11:44;;;;;;;66.93;56.42;;;;;;;15.14;100.00;102050.16;6158202;23;20327;-80
2023/05/08 07:14:10;;;;;;;68.38;57.75;;;;;;;15.18;100.00;102051.84;6109133;23;20010;-80
2023/05/08 07:16:36;;;;;;;69.43;59.28;;;;;;;15.18;100.00;102056.28;6157961;23;20016;-79
2023/05/08 07:19:02;;;;;;;68.75;59.97;;;;;;;15.29;100.00;102058.81;6132876;23;20005;-79
2023/05/08 07:21:28;;;;;;;72.45;63.17;;;;;;;15.33;100.00;102060.47;6132849;23;20017;-79
2023/05/08 07:23:54;;;;;;;84.75;71.53;;;;;;;15.32;100.00;102064.03;6133172;23;20017;-80
2023/05/08 07:26:20;;;;;;;84.75;70.15;;;;;;;15.37;100.00;102062.19;6109744;23;20005;-80
2023/05/08 07:28:45;;;;;;;84.15;70.80;;;;;;;15.35;100.00;102064.00;6109677;23;20023;-79
2023/05/08 07:31:11;;;;;;;84.03;70.30;;;;;;;15.39;100.00;102073.63;6109381;23;20408;-80
2023/05/08 07:33:36;;;;;;;73.47;63.17;;;;;;;15.30;100.00;102063.16;6133532;23;20076;-80
2023/05/08 07:36:02;;;;;;;82.53;69.60;;;;;;;15.27;100.00;102076.41;6157607;23;20059;-80
2023/05/08 07:38:27;;;;;;;78.18;67.03;;;;;;;15.18;100.00;102072.97;6108683;23;20280;-80
2023/05/08 07:40:55;;;;;;;73.57;61.03;;;;;;;15.26;100.00;102067.63;6133678;23;20262;-80
2023/05/08 07:43:22;;;;;;;66.05;56.90;;;;;;;15.25;100.00;102068.50;6133876;23;20091;-79
2023/05/08 07:45:48;;;;;;;57.40;46.50;;;;;;;15.22;100.00;102073.84;6133259;23;20020;-80
2023/05/08 07:48:13;;;;;;;54.33;48.10;;;;;;;15.23;100.00;102068.53;6157518;23;20021;-80
2023/05/08 07:50:38;;;;;;;52.42;46.70;;;;;;;15.25;100.00;102065.88;6156113;23;20016;-80
2023/05/08 07:53:05;;;;;;;54.28;46.78;;;;;;;15.28;100.00;102059.69;6108065;23;20109;-79
2023/05/08 07:55:30;;;;;;;52.00;44.85;;;;;;;15.30;100.00;102066.69;6133142;23;20013;-79
2023/05/08 07:57:56;;;;;;;54.55;46.08;;;;;;;15.30;100.00;102060.53;6108549;23;20108;-79
2023/05/08 08:00:21;;;;;;;51.97;46.13;;;;;;;15.34;100.00;102055.22;6108785;23;20009;-79
2023/05/08 08:02:47;;;;;;;53.08;44.67;;;;;;;15.31;100.00;102057.00;6108313;23;20086;-79
2023/05/08 08:05:12;;;;;;;52.92;46.03;;;;;;;15.40;100.00;102057.78;6132702;23;20016;-79
2023/05/08 08:07:38;;;;;;;55.28;46.33;;;;;;;15.41;100.00;102058.63;6132743;23;20020;-79
2023/05/08 08:10:03;;;;;;;50.10;44.58;;;;;;;15.32;99.68;102059.63;6133514;23;20013;-80
2023/05/08 08:12:30;;;;;;;57.92;48.17;;;;;;;15.37;100.00;102060.44;6133372;23;20033;-80
2023/05/08 08:14:56;;;;;;;54.50;46.60;;;;;;;15.44;100.00;102058.59;6133455;23;20017;-79
2023/05/08 08:17:22;;;;;;;55.42;47.55;;;;;;;15.63;100.00;102064.53;6108607;23;20012;-79
2023/05/08 08:19:47;;;;;;;59.20;50.15;;;;;;;15.65;100.00;102061.88;6156832;23;20013;-80
2023/05/08 08:22:13;;;;;;;56.88;48.65;;;;;;;15.71;100.00;102056.47;6107778;23;20028;-80
2023/05/08 08:24:38;;;;;;;58.03;49.55;;;;;;;15.82;100.00;102061.66;6157280;23;20001;-80
2023/05/08 08:27:04;;;;;;;58.42;49.95;;;;;;;16.02;100.00;102059.59;6132962;23;20394;-79
2023/05/08 08:29:29;;;;;;;58.83;51.22;;;;;;;16.12;100.00;102060.34;6108348;23;20142;-80
2023/05/08 08:31:55;;;;;;;61.08;51.40;;;;;;;16.33;100.00;102063.53;6132806;23;20020;-80
2023/05/08 08:34:21;;;;;;;52.45;46.28;;;;;;;16.43;99.52;102052.78;6156354;23;20374;-81
2023/05/08 08:36:46;;;;;;;54.60;46.00;;;;;;;16.63;99.55;102055.06;6156878;23;20041;-80
2023/05/08 08:39:11;;;;;;;51.72;45.50;;;;;;;16.98;100.00;102050.03;6107747;23;20005;-80
2023/05/08 08:41:38;;;;;;;46.33;41.25;;;;;;;17.06;99.28;102055.22;6108675;23;20012;-81
2023/05/08 08:44:04;;;;;;;46.35;41.33;;;;;;;17.29;99.91;102050.31;6157912;23;20062;-81
2023/05/08 08:46:32;;;;;;;47.90;42.70;;;;;;;17.37;95.97;102052.81;6128156;23;20081;-81
2023/05/08 08:48:58;;;;;;;47.42;42.50;;;;;;;17.46;97.04;102054.41;6127982;23;20009;-81
2023/05/08 08:51:25;;;;;;;45.05;40.15;;;;;;;17.69;98.22;102055.69;6127669;23;20005;-81
2023/05/08 08:54:02;;;;;;;44.53;39.42;;;;;;;17.97;96.71;102054.19;6126804;23;20084;-80
2023/05/08 08:56:28;;;;;;;41.72;36.55;;;;;;;18.12;94.23;102057.38;6128024;23;20044;-81
2023/05/08 08:58:58;;;;;;;39.92;35.65;;;;;;;18.13;91.32;102057.34;6078717;23;20009;-81
2023/05/08 09:01:27;;;;;;;37.35;33.08;;;;;;;18.55;92.00;102061.59;6128525;23;20336;-81
2023/05/08 09:03:55;;;;;;;41.28;36.85;;;;;;;18.99;94.24;102059.59;6103750;23;20087;-81
2023/05/08 09:06:21;;;;;;;35.60;31.88;;;;;;;18.87;80.65;102060.75;6127662;23;20084;-81
2023/05/08 09:08:51;;;;;;;38.17;34.08;;;;;;;19.24;87.38;102060.66;6127787;23;20036;-81
2023/05/08 09:11:16;;;;;;;35.20;31.35;;;;;;;19.39;84.79;102055.78;6128179;23;20005;-81
2023/05/08 09:13:42;;;;;;;34.00;30.55;;;;;;;19.60;81.25;102058.72;6103577;23;20032;-81
2023/05/08 09:16:07;;;;;;;33.85;30.33;;;;;;;19.76;80.72;102061.75;6080330;23;20352;-81
2023/05/08 09:18:33;;;;;;;33.47;30.15;;;;;;;19.84;82.08;102059.78;6079137;23;20092;-81
2023/05/08 09:21:00;;;;;;;30.65;27.50;;;;;;;19.83;76.68;102062.50;6127637;23;20021;-81
2023/05/08 09:23:25;;;;;;;31.73;28.42;;;;;;;19.57;75.80;102066.78;6103460;23;20013;-81
2023/05/08 09:25:51;;;;;;;32.28;28.98;;;;;;;19.79;77.91;102061.69;6079830;23;20101;-80
2023/05/08 09:28:26;;;;;;;35.15;31.50;;;;;;;19.69;81.08;102063.72;6079581;23;20397;-80
2023/05/08 09:30:52;;;;;;;32.90;29.65;;;;;;;19.86;78.01;102062.38;6103934;23;20017;-81
2023/05/08 09:33:19;;;;;;;30.58;27.45;;;;;;;19.62;75.25;102070.16;6127832;23;19997;-81
2023/05/08 09:35:47;;;;;;;31.63;28.35;;;;;;;19.89;77.98;102064.94;6103512;23;20021;-81
2023/05/08 09:38:31;;;;;;;30.48;27.40;;;;;;;19.84;78.57;102058.88;6127517;23;20385;-81
2023/05/08 09:41:14;;;;;;;33.03;29.35;;;;;;;19.97;78.23;102062.03;6103796;23;20463;-81
2023/05/08 09:43:40;;;;;;;29.67;26.63;;;;;;;19.72;76.63;102066.31;6127924;23;20044;-81
2023/05/08 09:46:26;;;;;;;29.35;26.40;;;;;;;19.81;78.85;102065.19;6128459;23;20440;-81
2023/05/08 09:48:57;;;;;;;33.08;29.73;;;;;;;19.55;76.48;102072.16;6127965;23;20024;-81
2023/05/08 09:51:24;;;;;;;32.38;28.98;;;;;;;19.46;74.96;102072.41;6153633;23;20009;-80
2023/05/08 09:53:51;;;;;;;33.22;29.73;;;;;;;19.28;79.41;102079.16;6102383;23;20017;-81
2023/05/08 09:56:38;;;;;;;34.75;31.15;;;;;;;19.35;79.67;102075.41;6104070;23;20285;-81
2023/05/08 09:59:21;;;;;;;35.75;32.05;;;;;;;19.47;80.39;102074.16;6126882;23;20012;-81
2023/05/08 10:01:50;;;;;;;36.95;33.13;;;;;;;19.46;79.90;102076.84;6127444;23;20096;-80
2023/05/08 10:04:15;;;;;;;36.63;32.13;;;;;;;19.53;77.87;102079.28;6126921;23;20010;-80
2023/05/08 10:06:41;;;;;;;34.53;31.08;;;;;;;19.31;76.76;102076.41;6100981;23;20017;-80
2023/05/08 10:09:07;;;;;;;33.97;30.52;;;;;;;19.33;77.19;102077.22;6125983;23;20039;-80
2023/05/08 10:11:32;;;;;;;35.67;31.88;;;;;;;19.23;78.17;102080.19;6126691;23;20060;-80
2023/05/08 10:13:58;;;;;;;36.22;32.53;;;;;;;19.36;78.52;102071.78;6103098;23;20014;-80
2023/05/08 10:16:28;;;;;;;35.45;31.92;;;;;;;19.20;75.62;102070.50;6078933;23;20009;-80
2023/05/08 10:19:00;;;;;;;34.85;31.25;;;;;;;19.04;75.18;102076.25;6101439;23;20377;-80
2023/05/08 10:21:28;;;;;;;34.72;31.15;;;;;;;19.09;76.21;102080.56;6125878;23;20017;-80
2023/05/08 10:23:58;;;;;;;35.97;32.38;;;;;;;19.11;77.23;102086.72;6102492;23;20339;-80
2023/05/08 10:26:29;;;;;;;34.33;30.88;;;;;;;19.32;78.20;102079.91;6127136;23;20088;-81
2023/05/08 10:28:57;;;;;;;34.58;30.98;;;;;;;19.50;77.36;102081.19;6127214;23;20039;-80
2023/05/08 10:31:33;;;;;;;35.25;31.52;;;;;;;19.39;74.39;102071.75;6127028;23;20005;-81
2023/05/08 10:34:01;;;;;;;35.42;31.73;;;;;;;19.54;76.97;102072.19;6127855;23;20447;-80
2023/05/08 10:36:27;;;;;;;35.28;31.67;;;;;;;19.74;79.35;102066.28;6104239;23;20013;-81
2023/05/08 10:38:59;;;;;;;35.22;31.48;;;;;;;20.02;78.25;102066.28;6103995;23;20010;-81
2023/05/08 10:41:26;;;;;;;35.85;31.75;;;;;;;20.11;78.25;102065.13;6104499;23;20009;-81
2023/05/08 10:43:53;;;;;;;35.22;31.70;;;;;;;20.47;76.38;102061.28;6104787;23;20014;-81
2023/05/08 10:46:33;;;;;;;36.03;32.28;;;;;;;20.73;76.65;102057.75;6104952;23;20017;-81
2023/05/08 10:49:12;;;;;;;35.08;30.85;;;;;;;20.84;76.37;102054.72;6128692;23;20013;-81
2023/05/08 10:52:05;;;;;;;33.13;29.52;;;;;;;21.01;74.46;102054.97;6127972;23;20037;-81
2023/05/08 10:54:52;;;;;;;33.00;29.60;;;;;;;21.05;74.72;102059.28;6128981;23;20009;-81
2023/05/08 10:57:18;;;;;;;34.80;31.20;;;;;;;20.90;70.63;102055.38;6128320;23;20037;-81
2023/05/08 10:59:45;;;;;;;36.95;33.05;;;;;;;21.03;73.32;102046.94;6128940;23;20032;-82
2023/05/08 11:02:12;;;;;;;35.78;32.17;;;;;;;21.06;72.52;102044.16;6104586;23;20017;-81
2023/05/08 11:04:38;;;;;;;35.13;31.48;;;;;;;21.14;71.27;102049.22;6128508;23;20005;-81
2023/05/08 11:07:04;;;;;;;35.65;32.15;;;;;;;21.46;73.46;102042.66;6127760;23;20009;-82
2023/05/08 11:09:42;;;;;;;34.83;31.33;;;;;;;21.46;71.34;102045.31;6128599;23;20009;-81
2023/05/08 11:12:10;;;;;;;34.35;31.02;;;;;;;21.56;71.93;102048.53;6129197;23;20092;-82